Time;durP1;ratioP1;P1;durP2;ratioP2;P2;SDS_P1;SDS_P2;PMS_P1;PMS_P2;Temp;Humidity;BMP_temperature;BMP_pressure;BME280_temperature;BME280_humidity;BME280_pressure;Samples;Min_cycle;Max_cycle;Signal;HPM_P1;HPM_P2
2023/06/25 00:02:13;;;;;;;4.38;3.10;;;;;;;16.35;100.00;100299.28;5037655;28;20041;-77
2023/06/25 00:04:39;;;;;;;6.57;3.72;;;;;;;16.35;100.00;100287.63;5038103;28;20033;-76
2023/06/25 00:07:05;;;;;;;6.25;3.78;;;;;;;16.22;100.00;100272.31;5053914;28;20116;-78
2023/06/25 00:09:30;;;;;;;7.05;3.80;;;;;;;16.34;100.00;100291.41;5054124;28;20044;-76
2023/06/25 00:11:56;;;;;;;6.10;3.20;;;;;;;16.31;100.00;100286.44;5054154;28;20426;-76
2023/06/25 00:14:22;;;;;;;4.47;3.65;;;;;;;16.31;100.00;100289.97;5054444;28;20048;-76
2023/06/25 00:16:47;;;;;;;6.10;3.67;;;;;;;16.34;100.00;100294.09;5054153;28;20033;-77
2023/06/25 00:19:17;;;;;;;9.82;3.80;;;;;;;16.39;100.00;100286.13;5037909;28;20041;-77
2023/06/25 00:21:42;;;;;;;4.43;3.20;;;;;;;16.42;100.00;100274.81;5038008;28;20086;-78
2023/06/25 00:24:08;;;;;;;8.15;3.38;;;;;;;16.45;100.00;100229.03;5021267;28;20037;-76
2023/06/25 00:26:34;;;;;;;4.88;2.70;;;;;;;16.43;100.00;100227.63;5054365;28;20032;-76
2023/06/25 00:28:59;;;;;;;5.60;3.20;;;;;;;16.48;100.00;100242.19;5053903;28;20025;-77
2023/06/25 00:31:25;;;;;;;4.28;3.40;;;;;;;16.55;100.00;100233.94;5037507;28;20463;-78
2023/06/25 00:33:51;;;;;;;3.75;3.00;;;;;;;16.56;100.00;100243.72;5054009;28;20029;-76
2023/06/25 00:36:16;;;;;;;12.55;4.25;;;;;;;16.62;100.00;100234.69;5037421;28;20120;-76
2023/06/25 00:38:42;;;;;;;4.78;2.88;;;;;;;16.67;100.00;100221.28;5037148;28;20028;-76
2023/06/25 00:41:09;;;;;;;6.85;3.10;;;;;;;16.69;100.00;100210.16;5054005;28;20387;-77
2023/06/25 00:43:41;;;;;;;5.60;2.42;;;;;;;16.75;100.00;100225.56;5037285;28;20041;-77
2023/06/25 00:46:15;;;;;;;8.93;3.58;;;;;;;16.78;100.00;100227.03;5021102;28;20040;-77
2023/06/25 00:48:45;;;;;;;5.32;2.78;;;;;;;16.69;100.00;100200.13;5053918;28;20037;-77
2023/06/25 00:51:14;;;;;;;6.88;3.72;;;;;;;16.71;100.00;100200.75;5038093;28;20029;-77
2023/06/25 00:53:40;;;;;;;5.35;3.40;;;;;;;16.71;100.00;100180.91;5020853;28;20036;-76
2023/06/25 00:56:06;;;;;;;5.72;2.88;;;;;;;16.65;100.00;100169.09;5053287;28;20086;-78
2023/06/25 00:58:34;;;;;;;9.82;4.05;;;;;;;16.82;100.00;100217.34;5053555;28;20044;-78
2023/06/25 01:01:01;;;;;;;7.22;3.78;;;;;;;16.87;100.00;100212.88;5054702;28;20029;-76
2023/06/25 01:03:30;;;;;;;10.35;3.40;;;;;;;16.90;100.00;100217.84;5004110;28;20033;-77
2023/06/25 01:05:57;;;;;;;5.63;3.38;;;;;;;16.93;100.00;100213.84;5036905;28;20040;-77
2023/06/25 01:08:28;;;;;;;5.53;3.10;;;;;;;16.94;100.00;100214.69;5054450;28;20033;-76
2023/06/25 01:10:55;;;;;;;5.05;2.75;;;;;;;16.92;100.00;100196.72;5054270;28;20107;-76
2023/06/25 01:13:20;;;;;;;4.57;2.75;;;;;;;16.92;100.00;100198.59;5053276;28;20032;-77
2023/06/25 01:15:47;;;;;;;4.97;3.22;;;;;;;16.94;100.00;100201.09;5020343;28;20037;-78
2023/06/25 01:18:14;;;;;;;7.15;3.17;;;;;;;16.89;100.00;100194.47;5052614;28;20380;-76
2023/06/25 01:20:40;;;;;;;6.47;2.72;;;;;;;16.92;100.00;100202.16;5036079;28;20069;-76
2023/06/25 01:23:06;;;;;;;2.78;2.13;;;;;;;16.98;100.00;100199.56;5053951;28;20036;-78
2023/06/25 01:25:32;;;;;;;4.50;3.00;;;;;;;17.00;100.00;100206.44;5053235;28;20442;-77
2023/06/25 01:27:57;;;;;;;5.03;2.88;;;;;;;17.01;100.00;100196.38;5053056;28;20026;-76
2023/06/25 01:30:26;;;;;;;6.15;3.13;;;;;;;16.98;100.00;100192.25;5036630;28;20086;-76
2023/06/25 01:32:52;;;;;;;5.50;2.78;;;;;;;17.00;100.00;100190.13;5052720;28;20052;-76
2023/06/25 01:35:18;;;;;;;6.38;3.40;;;;;;;16.89;100.00;100161.06;5036065;28;20418;-79
2023/06/25 01:37:43;;;;;;;5.43;3.08;;;;;;;16.99;100.00;100190.34;5052969;28;20021;-77
2023/06/25 01:40:09;;;;;;;4.60;2.75;;;;;;;16.62;100.00;100188.56;5020023;28;20039;-77
2023/06/25 01:42:36;;;;;;;4.40;2.67;;;;;;;16.15;100.00;100191.03;5053681;28;20478;-76
2023/06/25 01:45:02;;;;;;;5.60;3.35;;;;;;;15.76;100.00;100184.97;5052623;28;20033;-76
2023/06/25 01:47:28;;;;;;;0.25;0.25;;;;;;;15.52;100.00;100197.47;5019927;28;20033;-76
2023/06/25 01:49:53;;;;;;;1.88;1.45;;;;;;;15.42;100.00;100258.59;5052713;28;20033;-77
2023/06/25 01:52:19;;;;;;;0.90;0.52;;;;;;;15.35;100.00;100273.03;5019882;28;20041;-76
2023/06/25 01:54:46;;;;;;;1.75;1.42;;;;;;;15.24;100.00;100232.28;5053530;28;20479;-74
2023/06/25 01:57:13;;;;;;;0.43;0.30;;;;;;;15.17;100.00;100246.69;5053438;28;20025;-75
2023/06/25 01:59:38;;;;;;;0.77;0.77;;;;;;;15.03;100.00;100257.81;5019549;28;20090;-74
2023/06/25 02:02:04;;;;;;;0.32;0.32;;;;;;;14.95;100.00;100245.38;5019471;28;20033;-75
2023/06/25 02:04:30;;;;;;;0.60;0.52;;;;;;;14.92;100.00;100243.09;5019606;28;20037;-75
2023/06/25 02:06:56;;;;;;;1.10;0.95;;;;;;;14.86;100.00;100236.69;5019483;28;20033;-76
2023/06/25 02:09:22;;;;;;;0.85;0.73;;;;;;;14.79;100.00;100229.63;5019461;28;20384;-75
2023/06/25 02:11:48;;;;;;;0.20;0.20;;;;;;;14.81;100.00;100241.91;5035724;28;20043;-75
2023/06/25 02:14:13;;;;;;;0.45;0.45;;;;;;;14.80;100.00;100248.38;5053488;28;20421;-74
2023/06/25 02:16:39;;;;;;;0.30;0.30;;;;;;;14.79;100.00;100248.59;5019320;28;20033;-75
2023/06/25 02:19:05;;;;;;;0.47;0.47;;;;;;;14.79;100.00;100238.59;5053544;28;20033;-75
2023/06/25 02:21:32;;;;;;;0.25;0.25;;;;;;;14.68;100.00;100231.97;5035854;28;20032;-75
2023/06/25 02:23:58;;;;;;;0.20;0.20;;;;;;;14.78;100.00;100247.75;5051750;28;20025;-74
2023/06/25 02:26:23;;;;;;;0.75;0.47;;;;;;;14.80;100.00;100245.66;5053399;28;20037;-75
2023/06/25 02:28:49;;;;;;;0.30;0.30;;;;;;;14.83;100.00;100258.78;5019260;28;20158;-74
2023/06/25 02:31:15;;;;;;;0.47;0.47;;;;;;;14.84;100.00;100246.06;5054438;28;20045;-75
2023/06/25 02:33:40;;;;;;;0.60;0.60;;;;;;;14.83;100.00;100239.00;5023418;28;20119;-74
2023/06/25 02:36:06;;;;;;;0.30;0.30;;;;;;;14.84;100.00;100246.06;5023386;28;20032;-75
2023/06/25 02:38:32;;;;;;;0.40;0.30;;;;;;;14.72;100.00;100221.56;5039370;28;20028;-74
2023/06/25 02:40:57;;;;;;;0.20;0.20;;;;;;;14.77;100.00;100237.16;5023235;28;20040;-74
2023/06/25 02:43:23;;;;;;;0.70;0.60;;;;;;;14.82;100.00;100240.03;5022805;28;20033;-75
2023/06/25 02:45:49;;;;;;;0.40;0.28;;;;;;;14.82;100.00;100242.72;5023191;28;20032;-76
2023/06/25 02:48:14;;;;;;;0.60;0.40;;;;;;;14.76;100.00;100238.19;5023167;28;20604;-75
2023/06/25 02:50:40;;;;;;;0.30;0.30;;;;;;;14.78;100.00;100245.06;5039493;28;20083;-74
2023/06/25 02:53:06;;;;;;;0.25;0.25;;;;;;;14.76;100.00;100247.13;5023035;28;20065;-74
2023/06/25 02:55:31;;;;;;;1.00;0.40;;;;;;;14.78;100.00;100226.09;5006526;28;20041;-76
2023/06/25 02:57:57;;;;;;;0.30;0.30;;;;;;;14.76;100.00;100232.78;5022945;28;20035;-75
2023/06/25 03:00:23;;;;;;;0.20;0.20;;;;;;;14.72;100.00;100232.38;5022535;28;20033;-74
2023/06/25 03:02:48;;;;;;;0.32;0.28;;;;;;;14.70;100.00;100229.06;5022672;28;20399;-74
2023/06/25 03:05:14;;;;;;;0.28;0.28;;;;;;;14.69;100.00;100222.00;5022714;28;20040;-75
2023/06/25 03:07:59;;;;;;;0.20;0.20;;;;;;;14.67;100.00;100197.84;5022730;28;20037;-74
2023/06/25 03:10:28;;;;;;;0.65;0.40;;;;;;;14.66;100.00;100206.16;5055295;28;20387;-76
2023/06/25 03:12:54;;;;;;;0.20;0.20;;;;;;;14.65;100.00;100204.53;5022300;28;20373;-75
2023/06/25 03:15:20;;;;;;;0.20;0.20;;;;;;;14.63;100.00;100212.03;5038955;28;20036;-75
2023/06/25 03:17:46;;;;;;;0.20;0.20;;;;;;;14.61;100.00;100204.13;5055437;28;20433;-75
2023/06/25 03:20:13;;;;;;;0.20;0.20;;;;;;;14.61;100.00;100214.13;5038976;28;20025;-75
2023/06/25 03:22:38;;;;;;;0.32;0.32;;;;;;;14.70;100.00;100226.34;5055330;28;20035;-77
2023/06/25 03:25:04;;;;;;;0.20;0.20;;;;;;;14.60;100.00;100194.34;5022464;28;20032;-75
2023/06/25 03:27:32;;;;;;;0.60;0.40;;;;;;;14.49;100.00;100190.41;5055184;28;20029;-75
2023/06/25 03:29:57;;;;;;;0.20;0.20;;;;;;;14.69;100.00;100208.47;5038351;28;20475;-75
2023/06/25 03:32:23;;;;;;;0.20;0.20;;;;;;;14.66;100.00;100196.22;5055276;28;20078;-75
2023/06/25 03:34:48;;;;;;;0.20;0.20;;;;;;;14.61;100.00;100196.03;5038848;28;20021;-76
2023/06/25 03:37:14;;;;;;;0.20;0.20;;;;;;;14.58;100.00;100198.31;5022321;28;20033;-75
2023/06/25 03:39:40;;;;;;;0.20;0.20;;;;;;;14.52;100.00;100195.41;5022259;28;20498;-75
2023/06/25 03:42:05;;;;;;;0.85;0.40;;;;;;;14.50;100.00;100188.53;5020868;28;20036;-76
2023/06/25 03:44:31;;;;;;;0.32;0.30;;;;;;;14.51;100.00;100198.31;5038134;28;20049;-75
2023/06/25 03:46:57;;;;;;;0.30;0.30;;;;;;;14.55;100.00;100206.88;5056134;28;20059;-75
2023/06/25 03:49:22;;;;;;;0.20;0.20;;;;;;;14.48;100.00;100198.75;5055126;28;20025;-75
2023/06/25 03:51:48;;;;;;;0.20;0.20;;;;;;;14.47;100.00;100202.50;5055925;28;20060;-75
2023/06/25 03:54:13;;;;;;;0.30;0.30;;;;;;;14.47;100.00;100202.50;5054608;28;20024;-75
2023/06/25 03:56:39;;;;;;;0.20;0.20;;;;;;;14.45;100.00;100210.84;5038455;28;20029;-74
2023/06/25 03:59:04;;;;;;;0.40;0.40;;;;;;;14.37;100.00;100213.78;5054882;28;20479;-75
2023/06/25 04:01:30;;;;;;;0.20;0.20;;;;;;;14.33;100.00;100215.25;5022017;28;20028;-74
2023/06/25 04:03:56;;;;;;;0.22;0.22;;;;;;;14.38;100.00;100237.06;5055593;28;20478;-75
2023/06/25 04:06:21;;;;;;;0.20;0.20;;;;;;;14.36;100.00;100217.53;5021403;28;20094;-75
2023/06/25 04:08:47;;;;;;;0.20;0.20;;;;;;;14.34;100.00;100221.47;5037793;28;20033;-75
2023/06/25 04:11:12;;;;;;;0.28;0.28;;;;;;;14.33;100.00;100228.78;5054285;28;20025;-74
2023/06/25 04:13:38;;;;;;;0.45;0.30;;;;;;;14.29;100.00;100222.13;5055394;28;20120;-74
2023/06/25 04:16:06;;;;;;;0.20;0.20;;;;;;;14.31;100.00;100228.16;5021615;28;20172;-74
2023/06/25 04:18:31;;;;;;;0.20;0.20;;;;;;;14.26;100.00;100225.25;5021677;28;20040;-74
2023/06/25 04:20:57;;;;;;;1.08;0.47;;;;;;;14.30;100.00;100235.44;5053983;28;20565;-76
2023/06/25 04:23:23;;;;;;;0.52;0.40;;;;;;;14.28;100.00;100228.56;5021131;28;20029;-74
2023/06/25 04:25:48;;;;;;;0.25;0.25;;;;;;;14.28;100.00;100210.47;5037375;28;20112;-75
2023/06/25 04:28:17;;;;;;;0.52;0.30;;;;;;;14.27;100.00;100224.22;5037590;28;20463;-74
2023/06/25 04:30:43;;;;;;;0.43;0.35;;;;;;;14.25;100.00;100237.13;5021046;28;20502;-74
2023/06/25 04:33:09;;;;;;;0.73;0.40;;;;;;;14.19;100.00;100233.41;5054102;28;20033;-74
2023/06/25 04:35:34;;;;;;;0.25;0.25;;;;;;;14.22;100.00;100243.78;5053688;28;20025;-74
2023/06/25 04:38:00;;;;;;;0.55;0.38;;;;;;;14.23;100.00;100244.59;5021007;28;20356;-75
2023/06/25 04:40:25;;;;;;;0.30;0.25;;;;;;;14.21;100.00;100227.75;5037245;28;20033;-74
2023/06/25 04:42:51;;;;;;;0.75;0.30;;;;;;;14.22;100.00;100249.19;5037303;28;20032;-74
2023/06/25 04:45:18;;;;;;;0.22;0.22;;;;;;;14.24;100.00;100257.94;5020824;28;20033;-74
2023/06/25 04:47:43;;;;;;;0.95;0.40;;;;;;;14.23;100.00;100242.72;5020745;28;20029;-74
2023/06/25 04:50:09;;;;;;;0.60;0.30;;;;;;;14.22;100.00;100249.19;5020612;28;20441;-75
2023/06/25 04:52:35;;;;;;;0.68;0.30;;;;;;;14.20;100.00;100251.25;5053754;28;20029;-74
2023/06/25 04:55:01;;;;;;;0.63;0.35;;;;;;;14.13;100.00;100263.13;5053545;28;20090;-75
2023/06/25 04:57:26;;;;;;;0.80;0.45;;;;;;;14.08;100.00;100280.84;5054244;28;20136;-75
2023/06/25 04:59:52;;;;;;;0.43;0.35;;;;;;;14.01;100.00;100269.19;5036733;28;20490;-74
2023/06/25 05:02:17;;;;;;;0.90;0.40;;;;;;;13.97;100.00;100265.25;5053237;28;20102;-75
2023/06/25 05:04:43;;;;;;;0.30;0.30;;;;;;;13.96;100.00;100276.28;5020534;28;20460;-77
2023/06/25 05:07:10;;;;;;;0.20;0.20;;;;;;;13.93;100.00;100272.13;5020241;28;20375;-76
2023/06/25 05:09:35;;;;;;;0.43;0.30;;;;;;;13.92;100.00;100272.31;5020424;28;20033;-76
2023/06/25 05:12:01;;;;;;;0.30;0.30;;;;;;;13.93;100.00;100276.69;5020457;28;20039;-75
2023/06/25 05:14:27;;;;;;;0.30;0.30;;;;;;;13.94;100.00;100289.16;5036959;28;20040;-75
2023/06/25 05:16:53;;;;;;;0.65;0.35;;;;;;;13.94;100.00;100284.59;5036377;28;20037;-75
2023/06/25 05:19:18;;;;;;;0.30;0.30;;;;;;;13.91;100.00;100285.00;5036858;28;20095;-75
2023/06/25 05:21:44;;;;;;;0.30;0.30;;;;;;;13.91;100.00;100285.00;5036552;28;20040;-74
2023/06/25 05:24:09;;;;;;;0.52;0.35;;;;;;;13.83;100.00;100272.53;5052607;28;20086;-74
2023/06/25 05:26:35;;;;;;;0.30;0.30;;;;;;;13.86;100.00;100279.41;5053019;28;20036;-75
2023/06/25 05:29:02;;;;;;;0.40;0.30;;;;;;;13.85;100.00;100275.03;5036327;28;20025;-75
2023/06/25 05:31:28;;;;;;;1.00;0.50;;;;;;;13.83;100.00;100282.53;5052907;28;20391;-75
2023/06/25 05:33:54;;;;;;;0.90;0.40;;;;;;;13.81;100.00;100285.44;5054107;28;20036;-74
2023/06/25 05:36:21;;;;;;;0.38;0.30;;;;;;;13.80;100.00;100289.16;5036101;28;20028;-75
2023/06/25 05:38:46;;;;;;;0.50;0.30;;;;;;;13.84;100.00;100286.91;5052356;28;20039;-75
2023/06/25 05:41:12;;;;;;;1.02;0.50;;;;;;;13.91;100.00;100297.69;5053574;28;20075;-75
2023/06/25 05:43:38;;;;;;;0.32;0.30;;;;;;;13.94;100.00;100303.50;5035903;28;20083;-74
2023/06/25 05:46:04;;;;;;;0.32;0.30;;;;;;;13.98;100.00;100306.63;5052786;28;20060;-76
2023/06/25 05:48:30;;;;;;;0.43;0.35;;;;;;;14.00;100.00;100308.09;5035871;28;20396;-75
2023/06/25 05:50:55;;;;;;;0.65;0.40;;;;;;;14.01;100.00;100317.03;5036072;28;20033;-75
2023/06/25 05:53:23;;;;;;;1.08;0.45;;;;;;;14.00;100.00;100324.31;5036022;28;20033;-75
2023/06/25 05:55:48;;;;;;;0.52;0.30;;;;;;;13.95;100.00;100326.81;5019754;28;20036;-75
2023/06/25 05:58:14;;;;;;;0.35;0.30;;;;;;;13.91;100.00;100330.94;5035991;28;20043;-75
2023/06/25 06:00:39;;;;;;;0.32;0.30;;;;;;;13.89;100.00;100326.78;5052445;28;20028;-75
2023/06/25 06:03:05;;;;;;;0.30;0.30;;;;;;;13.88;100.00;100325.97;5052298;28;20029;-74
2023/06/25 06:05:31;;;;;;;1.63;0.55;;;;;;;13.85;100.00;100332.63;5052782;28;20430;-76
2023/06/25 06:07:56;;;;;;;0.22;0.22;;;;;;;13.78;100.00;100330.94;5052466;28;20032;-75
2023/06/25 06:10:22;;;;;;;0.30;0.30;;;;;;;13.77;100.00;100338.22;5052303;28;20031;-75
2023/06/25 06:12:47;;;;;;;0.55;0.40;;;;;;;13.77;100.00;100338.22;5019332;28;20459;-75
2023/06/25 06:15:13;;;;;;;0.20;0.20;;;;;;;13.75;100.00;100339.47;5052020;28;20124;-75
2023/06/25 06:17:38;;;;;;;1.08;0.47;;;;;;;13.92;100.00;100348.00;5053439;28;20025;-76
2023/06/25 06:20:05;;;;;;;0.30;0.30;;;;;;;13.75;100.00;100334.06;5053198;28;20463;-75
2023/06/25 06:22:31;;;;;;;0.25;0.25;;;;;;;13.76;100.00;100336.59;5019246;28;20032;-77
2023/06/25 06:24:56;;;;;;;0.30;0.30;;;;;;;14.23;100.00;100339.25;5035745;28;20029;-75
2023/06/25 06:27:22;;;;;;;0.30;0.30;;;;;;;15.14;100.00;100346.50;5035819;28;20490;-75
2023/06/25 06:29:47;;;;;;;0.20;0.20;;;;;;;15.28;100.00;100345.38;5051729;28;20449;-75
2023/06/25 06:32:13;;;;;;;0.38;0.30;;;;;;;14.95;100.00;100349.09;5051929;28;20112;-76
2023/06/25 06:34:39;;;;;;;0.40;0.40;;;;;;;14.75;100.00;100361.03;5019206;28;20061;-75
2023/06/25 06:37:05;;;;;;;0.30;0.30;;;;;;;14.99;100.00;100356.78;5035774;28;20482;-75
2023/06/25 06:39:32;;;;;;;0.50;0.50;;;;;;;17.12;100.00;100355.84;5052058;28;20072;-75
2023/06/25 06:41:58;;;;;;;0.50;0.50;;;;;;;18.78;100.00;100355.94;5035733;28;20033;-76
2023/06/25 06:44:23;;;;;;;0.50;0.50;;;;;;;19.52;100.00;100347.03;5051893;28;20036;-76
2023/06/25 06:46:49;;;;;;;0.40;0.40;;;;;;;20.21;100.00;100355.84;5019280;28;20544;-75
2023/06/25 06:49:17;;;;;;;0.30;0.30;;;;;;;20.14;100.00;100360.69;5019111;28;20036;-75
2023/06/25 06:51:43;;;;;;;0.50;0.50;;;;;;;20.57;100.00;100356.44;5035481;28;20170;-76
2023/06/25 06:54:09;;;;;;;0.50;0.50;;;;;;;20.84;100.00;100359.25;5035475;28;20040;-74
2023/06/25 06:56:34;;;;;;;0.40;0.40;;;;;;;20.43;100.00;100358.66;5053173;28;20025;-73
2023/06/25 06:59:00;;;;;;;0.40;0.40;;;;;;;20.41;100.00;100354.53;5035369;28;20387;-74
2023/06/25 07:01:26;;;;;;;0.40;0.30;;;;;;;20.53;100.00;100360.69;5051693;28;20039;-74
2023/06/25 07:03:52;;;;;;;0.40;0.40;;;;;;;20.05;100.00;100362.16;5035119;28;20032;-74
2023/06/25 07:06:17;;;;;;;0.20;0.20;;;;;;;19.36;100.00;100356.00;5051666;28;20464;-73
2023/06/25 07:08:43;;;;;;;0.30;0.30;;;;;;;18.56;100.00;100366.59;5052925;28;20029;-74
2023/06/25 07:11:08;;;;;;;0.15;0.15;;;;;;;17.91;100.00;100369.41;5035193;28;20025;-76
2023/06/25 07:13:34;;;;;;;0.65;0.40;;;;;;;17.19;100.00;100363.94;5051321;28;20052;-75
2023/06/25 07:16:03;;;;;;;0.50;0.50;;;;;;;19.00;100.00;100369.75;5052054;28;20499;-74
2023/06/25 07:18:28;;;;;;;0.85;0.70;;;;;;;19.70;100.00;100378.75;5037946;28;20049;-74
2023/06/25 07:20:54;;;;;;;0.60;0.60;;;;;;;21.14;100.00;100374.34;5039078;28;20076;-74
2023/06/25 07:23:19;;;;;;;0.50;0.50;;;;;;;21.87;100.00;100372.16;5054861;28;20024;-75
2023/06/25 07:25:45;;;;;;;0.43;0.43;;;;;;;22.10;100.00;100378.38;5022470;28;20037;-75
2023/06/25 07:28:11;;;;;;;2.05;1.85;;;;;;;22.43;100.00;100379.19;5055236;28;20032;-74
2023/06/25 07:30:38;;;;;;;1.55;0.77;;;;;;;23.51;99.15;100384.09;5054765;28;20021;-75
2023/06/25 07:33:04;;;;;;;1.10;0.52;;;;;;;23.59;97.96;100383.53;5003914;28;20448;-75
2023/06/25 07:35:29;;;;;;;2.70;0.80;;;;;;;21.87;100.00;100385.00;5052705;28;20025;-75
2023/06/25 07:37:55;;;;;;;1.95;0.70;;;;;;;20.54;100.00;100389.72;5053451;28;20033;-75
2023/06/25 07:40:21;;;;;;;1.25;0.60;;;;;;;20.36;100.00;100389.94;5053419;28;20024;-74
2023/06/25 07:42:46;;;;;;;2.20;0.90;;;;;;;21.07;100.00;100390.16;5053339;28;20033;-74
2023/06/25 07:45:12;;;;;;;1.83;0.88;;;;;;;22.33;100.00;100380.78;5053277;28;20094;-75
2023/06/25 07:47:37;;;;;;;0.70;0.70;;;;;;;23.69;94.95;100391.81;5038300;28;20033;-76
2023/06/25 07:50:04;;;;;;;1.10;0.70;;;;;;;25.04;88.60;100391.44;5054840;28;20029;-75
2023/06/25 07:52:30;;;;;;;0.88;0.57;;;;;;;24.87;90.03;100391.75;5038266;28;20132;-75
2023/06/25 07:54:55;;;;;;;0.73;0.38;;;;;;;22.95;100.00;100395.66;5054556;28;20120;-75
2023/06/25 07:57:21;;;;;;;1.42;0.60;;;;;;;21.44;100.00;100390.34;5038084;28;20039;-75
2023/06/25 07:59:47;;;;;;;1.85;0.60;;;;;;;20.50;100.00;100385.78;5054309;28;20056;-75
2023/06/25 08:02:13;;;;;;;0.70;0.70;;;;;;;20.27;100.00;100385.97;5038297;28;20037;-75
2023/06/25 08:04:38;;;;;;;2.35;0.70;;;;;;;20.21;100.00;100396.81;5021600;28;20033;-75
2023/06/25 08:07:04;;;;;;;2.00;0.88;;;;;;;20.43;100.00;100398.81;5037866;28;20029;-75
2023/06/25 08:09:31;;;;;;;1.67;0.80;;;;;;;20.57;100.00;100396.56;5038061;28;20047;-75
2023/06/25 08:11:57;;;;;;;2.80;0.90;;;;;;;19.77;100.00;100395.81;5038229;28;20045;-75
2023/06/25 08:14:23;;;;;;;1.25;0.65;;;;;;;19.93;100.00;100372.34;5037857;28;20083;-75
2023/06/25 08:16:49;;;;;;;2.80;1.35;;;;;;;22.57;100.00;100394.06;5055111;28;20033;-75
2023/06/25 08:19:15;;;;;;;1.63;0.98;;;;;;;24.51;95.67;100405.59;5037383;28;20042;-75
2023/06/25 08:21:40;;;;;;;2.78;1.15;;;;;;;25.59;86.67;100407.97;5053885;28;20036;-76
2023/06/25 08:24:06;;;;;;;3.30;1.20;;;;;;;26.16;82.23;100408.44;5053858;28;20061;-77
2023/06/25 08:26:36;;;;;;;3.03;1.35;;;;;;;26.72;80.33;100411.50;5055094;28;20037;-76
2023/06/25 08:29:02;;;;;;;4.05;1.20;;;;;;;27.04;78.61;100412.78;5053764;28;20570;-76
2023/06/25 08:31:28;;;;;;;2.17;1.30;;;;;;;27.64;76.73;100398.50;5054018;28;20116;-75
2023/06/25 08:33:54;;;;;;;3.78;1.60;;;;;;;28.57;73.46;100418.03;5054160;28;20033;-75
2023/06/25 08:36:19;;;;;;;3.30;1.00;;;;;;;26.29;77.60;100411.34;5055191;28;20116;-75
2023/06/25 08:38:45;;;;;;;4.85;1.23;;;;;;;23.78;89.06;100416.00;5053665;28;20032;-75
2023/06/25 08:41:10;;;;;;;2.67;0.95;;;;;;;21.89;94.53;100411.03;5053569;28;20392;-75
2023/06/25 08:43:36;;;;;;;12.27;0.95;;;;;;;20.77;100.00;100421.47;5036811;28;20082;-75
2023/06/25 08:46:02;;;;;;;2.03;1.10;;;;;;;19.55;100.00;100422.88;5037169;28;20032;-74
2023/06/25 08:48:31;;;;;;;4.25;1.10;;;;;;;18.69;100.00;100420.00;5037401;28;20091;-75
2023/06/25 08:51:02;;;;;;;4.90;1.80;;;;;;;18.50;100.00;100427.44;5054739;28;20029;-75
2023/06/25 08:53:28;;;;;;;2.78;1.13;;;;;;;19.48;100.00;100436.69;5020605;28;20475;-76
2023/06/25 08:55:55;;;;;;;6.85;1.75;;;;;;;21.68;100.00;100415.47;5036855;28;20029;-86
2023/06/25 08:58:24;;;;;;;1.73;0.95;;;;;;;21.94;100.00;100437.66;5053266;28;20108;-81
2023/06/25 09:00:53;;;;;;;4.10;1.30;;;;;;;20.64;100.00;100430.00;5020856;28;20040;-82
2023/06/25 09:03:18;;;;;;;2.40;1.25;;;;;;;21.58;99.10;100428.22;5036706;28;20028;-81
2023/06/25 09:05:55;;;;;;;1.50;1.00;;;;;;;22.70;92.64;100426.47;5036834;28;20037;-84
2023/06/25 09:08:22;;;;;;;2.80;1.33;;;;;;;24.12;91.82;100441.84;5036680;28;20039;-82
2023/06/25 09:10:55;;;;;;;1.83;1.40;;;;;;;26.03;82.88;100432.75;5036625;28;20039;-82
2023/06/25 09:13:27;;;;;;;3.70;1.77;;;;;;;27.14;76.86;100440.25;5036418;28;20025;-83
2023/06/25 09:16:03;;;;;;;2.58;1.45;;;;;;;27.99;68.57;100446.88;5020081;28;20134;-83
2023/06/25 09:18:29;;;;;;;2.67;1.40;;;;;;;28.96;68.80;100449.94;5036807;28;20075;-83
2023/06/25 09:20:56;;;;;;;2.22;1.25;;;;;;;28.12;66.40;100441.72;5054058;28;20094;-84
2023/06/25 09:23:24;;;;;;;3.78;1.30;;;;;;;25.37;73.32;100428.44;5052949;28;20028;-84
2023/06/25 09:25:51;;;;;;;4.18;1.17;;;;;;;22.81;85.42;100458.38;5036414;28;20539;-84
2023/06/25 09:28:17;;;;;;;3.63;1.20;;;;;;;22.26;89.12;100450.56;5020014;28;20040;-83
2023/06/25 09:30:43;;;;;;;1.90;1.23;;;;;;;24.88;81.05;100453.09;5052555;28;20028;-83
2023/06/25 09:33:10;;;;;;;1.77;1.30;;;;;;;26.89;75.34;100451.59;5036334;28;20037;-83
2023/06/25 09:35:36;;;;;;;2.47;1.20;;;;;;;28.16;67.79;100459.38;5035887;28;20063;-84
2023/06/25 09:38:02;;;;;;;2.22;1.02;;;;;;;27.59;54.46;100427.00;5052412;28;20460;-83
2023/06/25 09:40:28;;;;;;;3.92;1.42;;;;;;;26.10;56.92;100454.50;5051730;28;20033;-82
2023/06/25 09:42:58;;;;;;;2.88;1.30;;;;;;;27.50;53.87;100456.41;5052373;28;20036;-84
2023/06/25 09:45:25;;;;;;;2.80;1.67;;;;;;;28.91;47.23;100474.94;5019384;28;20040;-84
2023/06/25 09:47:51;;;;;;;2.58;0.90;;;;;;;27.44;45.17;100471.38;5035954;28;20387;-86
2023/06/25 09:50:35;;;;;;;3.70;1.50;;;;;;;26.18;47.73;100477.88;5019678;28;20186;-84
2023/06/25 09:53:04;;;;;;;3.33;1.58;;;;;;;27.89;44.70;100476.63;5052370;28;20028;-81
2023/06/25 09:55:33;;;;;;;3.10;1.60;;;;;;;28.69;40.63;100461.81;5052502;28;20139;-80
2023/06/25 09:58:00;;;;;;;6.50;1.40;;;;;;;29.59;39.34;100476.09;5035918;28;20044;-81
2023/06/25 10:00:28;;;;;;;2.63;1.48;;;;;;;29.75;37.70;100482.16;5051922;28;20040;-81
2023/06/25 10:02:54;;;;;;;3.33;1.70;;;;;;;29.89;37.38;100466.31;5035686;28;20028;-81
2023/06/25 10:05:20;;;;;;;4.80;1.70;;;;;;;29.19;37.68;100481.38;5035780;28;20032;-80
2023/06/25 10:07:46;;;;;;;3.97;1.63;;;;;;;30.26;35.95;100477.41;5052255;28;20130;-82
2023/06/25 10:10:19;;;;;;;3.65;1.10;;;;;;;27.23;38.82;100481.03;5019324;28;20112;-80
2023/06/25 10:12:47;;;;;;;3.25;1.45;;;;;;;25.38;41.73;100479.66;5051720;28;20039;-81
2023/06/25 10:15:12;;;;;;;2.78;1.48;;;;;;;25.82;43.11;100492.63;5052266;28;20029;-81
2023/06/25 10:17:51;;;;;;;2.58;1.40;;;;;;;27.39;40.03;100490.81;5052384;28;20036;-81
2023/06/25 10:20:25;;;;;;;2.30;1.30;;;;;;;26.89;40.71;100488.28;5035690;28;20059;-82
2023/06/25 10:23:10;;;;;;;3.80;1.30;;;;;;;25.19;44.63;100482.22;5019135;28;20036;-82
2023/06/25 10:25:56;;;;;;;9.35;1.40;;;;;;;23.85;48.59;100496.19;5036124;28;20080;-81
2023/06/25 10:28:32;;;;;;;3.58;1.40;;;;;;;22.22;56.01;100504.19;5035722;28;20087;-81
2023/06/25 10:31:01;;;;;;;4.10;1.67;;;;;;;21.05;62.44;100496.19;5019221;28;20383;-81
2023/06/25 10:33:30;;;;;;;2.63;1.30;;;;;;;20.41;67.42;100504.72;5051813;28;20033;-82
2023/06/25 10:35:57;;;;;;;4.47;1.70;;;;;;;21.40;68.60;100512.25;5038582;28;20024;-82
2023/06/25 10:38:26;;;;;;;4.10;1.60;;;;;;;22.52;60.82;100509.94;5062648;28;20040;-81
2023/06/25 10:40:52;;;;;;;4.22;1.40;;;;;;;22.00;61.83;100494.09;5055985;28;20086;-82
2023/06/25 10:43:18;;;;;;;2.03;1.58;;;;;;;23.51;58.83;100512.25;5034694;28;20025;-82
2023/06/25 10:45:48;;;;;;;6.75;1.73;;;;;;;23.52;54.35;100517.44;5051436;28;20116;-83
2023/06/25 10:48:14;;;;;;;3.65;2.00;;;;;;;25.66;51.31;100515.88;5034888;28;20449;-83
2023/06/25 10:50:40;;;;;;;4.07;1.80;;;;;;;27.64;46.27;100514.50;5034960;28;20029;-83
2023/06/25 10:53:11;;;;;;;3.60;1.20;;;;;;;28.55;40.74;100505.19;5038725;28;20029;-82
2023/06/25 10:55:38;;;;;;;4.45;1.95;;;;;;;28.86;38.47;100500.75;5056054;28;20112;-83
2023/06/25 10:58:04;;;;;;;2.65;1.42;;;;;;;29.49;37.87;100517.88;5056834;28;20029;-83
2023/06/25 11:00:29;;;;;;;3.55;1.40;;;;;;;30.20;36.47;100505.22;5055932;28;20025;-82
2023/06/25 11:02:55;;;;;;;3.67;1.42;;;;;;;29.17;37.60;100503.00;5055776;28;20456;-83
2023/06/25 11:05:32;;;;;;;2.42;1.10;;;;;;;26.98;41.12;100518.81;5039464;28;20379;-83
2023/06/25 11:07:57;;;;;;;3.75;1.40;;;;;;;27.00;42.26;100511.06;5039332;28;20103;-83
2023/06/25 11:10:23;;;;;;;3.45;1.50;;;;;;;28.08;40.25;100520.84;5056951;28;20032;-83
2023/06/25 11:12:49;;;;;;;2.53;1.13;;;;;;;26.50;41.95;100536.03;5055406;28;20040;-84
2023/06/25 11:15:17;;;;;;;2.95;1.23;;;;;;;24.29;47.47;100539.66;5039230;28;20476;-83
2023/06/25 11:17:49;;;;;;;3.15;1.20;;;;;;;22.11;50.00;100536.91;5039124;28;20025;-83